Airfield :
LOGIN :

Register | Disclaimer

   EN    FR    IT 

 










Legend :    VFR   Marginal VFR   IFR   Intensive IFR   Very Intensive IFR
Visi :
Ceiling :
>= 8 km
>= 3000ft
5 to 8 km
1000 to 3000 ft
1500m to 5 km
500 to 1000 ft
800 to 1500m
200 to 500 ft
< 800m
< 200 ft
Symbols :   Thunderstorms  Fog  Heavy snow  Heavy precipitations  Wind > 20 kt
SIGMETs :     Misc.  Thunderstorms  Icing  Turbulence  Mountain Waves  Volcanic Ashes






- Airport Elevation : 55 ft
- IATA code : DSA


EGCN - Robin Hood Doncaster Sheffield

CURRENT METAR :
  • 280220Z 32002KT 9999 SCT028 06/05 Q1014

EXPIRED METARs :
  • 280150Z VRB02KT 9999 SCT028 06/05 Q1015
  • 280120Z VRB02KT 9999 SCT030 07/06 Q1015
  • 280050Z 30005KT CAVOK 07/06 Q1015
  • 280020Z 31004KT CAVOK 07/06 Q1015
  • 272350Z 29004KT CAVOK 06/05 Q1015

TAF TAF EGCN
Valid from the 28 at 00:00 until the 29 at 00:00 UTC


272254Z 2800/2824 30004KT 9999 FEW045
PROB30
TEMPO 2803/2809 7000
TEMPO 2818/2822 BKN010
PROB40
TEMPO 2818/2821 8000 -RA BKN006



MET'MAP, your aeronautical weather chart ! - Copyright ORBIFLY December 2007 - Disclaimer

ORBIFLY MET'MAP TEAM :

Programming & Development : Alexandra Zaïnal
Concept & original design : Baudouin d'Aumeries
Assistance for programming : Marc-Olivier Méhu
Technical & hardware support : Manuel Goepfert

Contact : metmap@orbifly.com




SOURCES & CREDITS :

   NOAA